Data for 10/11/2006

Time Sea-Level Adjusted Pressure Absolute Pressure Temperature Relative Humidity Dew Point   
(mb) (inHg) (mb) (inHg) (C) (F) (%) (C) (F)
00:05 1021 30.15 850 25.1 5.7 42.2 71 0.8 33.4
00:10 1021 30.15 850 25.1 5.9 42.7 70 0.9 33.6
00:15 1021 30.15 850 25.1 6.1 43 70 1 33.9
00:20 1021 30.15 850 25.1 6.2 43.2 69 1 33.9
00:25 1021 30.15 850 25.1 6.1 43 70 1 33.8
00:30 1021 30.15 850 25.1 6 42.7 71 1.2 34.2
00:35 1021 30.15 850 25.1 5.5 41.8 72 0.8 33.5
00:40 1021 30.15 850 25.1 5.6 42.1 71 0.7 33.2
00:45 1021 30.15 850 25.1 5.6 42 71 0.8 33.4
00:50 1021 30.15 850 25.1 5.7 42.2 69 0.5 32.9
00:55 1021 30.15 850 25.1 5.8 42.5 70 0.8 33.4
01:00 1020 30.12 850 25.1 5.8 42.4 71 1 33.7
01:05 1020 30.12 850 25.1 5.7 42.2 74 1.4 34.5
01:10 1020 30.12 850 25.1 5.8 42.4 73 1.3 34.3
01:15 1020 30.12 850 25.1 6 42.8 71 1.2 34.2
01:20 1020 30.12 849 25.07 6 42.8 72 1.4 34.5
01:25 1020 30.12 849 25.07 5.8 42.5 73 1.4 34.5
01:30 1020 30.12 849 25.07 5.3 41.6 76 1.4 34.5
01:35 1020 30.12 849 25.07 5.1 41.2 73 0.7 33.3
01:40 1020 30.12 849 25.07 5.3 41.5 75 1.1 34
01:45 1020 30.12 849 25.07 5.4 41.7 75 1.3 34.4
01:50 1020 30.12 849 25.07 5.4 41.6 75 1.4 34.5
01:55 1020 30.12 850 25.1 5.2 41.3 75 1.1 34
02:00 1020 30.12 850 25.1 5.2 41.3 75 1.1 34
02:05 1020 30.12 850 25.1 5.3 41.5 75 1.1 34
02:10 1020 30.12 850 25.1 5.5 41.8 74 1.1 34.1
02:15 1020 30.12 850 25.1 5.4 41.8 74 1.2 34.1
02:20 1021 30.15 850 25.1 5.4 41.7 75 1.3 34.3
02:25 1021 30.15 850 25.1 5.2 41.3 76 1.3 34.3
02:30 1021 30.15 850 25.1 5.1 41.2 76 1.2 34.2
02:35 1021 30.15 850 25.1 5.3 41.5 76 1.5 34.7
02:40 1021 30.15 850 25.1 5.2 41.4 76 1.3 34.4
02:45 1021 30.15 850 25.1 5.1 41.2 76 1.2 34.1
02:50 1021 30.15 850 25.1 5.1 41.2 71 0.4 32.7
02:55 1021 30.15 850 25.1 5.2 41.4 74 0.9 33.6
03:00 1021 30.15 850 25.1 5 41.1 74 0.8 33.4
03:05 1021 30.15 850 25.1 5 41 73 0.6 33.1
03:10 1021 30.15 850 25.1 5.2 41.3 73 0.8 33.5
03:15 1020 30.12 850 25.1 5.1 41.2 72 0.5 33
03:20 1020 30.12 850 25.1 5.2 41.4 72 0.7 33.2
03:25 1021 30.15 850 25.1 5.4 41.8 71 0.6 33.1
03:30 1020 30.12 850 25.1 5.6 42.1 71 0.7 33.3
03:35 1020 30.12 850 25.1 5.4 41.6 73 0.9 33.6
03:40 1020 30.12 850 25.1 5.5 41.8 71 0.7 33.3
03:45 1020 30.12 850 25.1 5.6 42.2 70 0.6 33.1
03:50 1020 30.12 850 25.1 5.5 41.9 70 0.6 33
03:55 1020 30.12 850 25.1 5.4 41.7 71 0.5 32.9
04:00 1020 30.12 850 25.1 5.5 41.9 69 0.3 32.5
04:05 1020 30.12 850 25.1 5.6 42.1 69 0.5 32.8
04:10 1020 30.12 850 25.1 5.5 41.9 69 0.4 32.6
04:15 1020 30.12 849 25.07 5.5 41.8 71 0.6 33.1
04:20 1020 30.12 850 25.1 5.2 41.4 70 0.2 32.4
04:25 1020 30.12 850 25.1 5.2 41.4 70 0.3 32.5
04:30 1020 30.12 849 25.07 5.2 41.3 69 -0.1 31.8
04:35 1020 30.12 849 25.07 5.1 41.2 71 0.3 32.5
04:40 1020 30.12 849 25.07 5 41.1 72 0.4 32.7
04:45 1020 30.12 849 25.07 5.1 41.1 70 0.1 32.1
04:50 1020 30.12 849 25.07 5.2 41.3 70 0.1 32.1
04:55 1020 30.12 849 25.07 5.2 41.4 70 0.2 32.4
05:00 1020 30.12 849 25.07 5 41 71 0.2 32.4
05:05 1020 30.12 849 25.07 4.8 40.7 72 0.3 32.6
05:10 1020 30.12 849 25.07 4.9 40.8 71 0.2 32.3
05:15 1020 30.12 849 25.07 4.9 40.9 72 0.4 32.7
05:20 1020 30.12 849 25.07 4.8 40.7 74 0.5 33
05:25 1020 30.12 849 25.07 4.5 40.2 75 0.5 32.8
05:30 1020 30.12 849 25.07 4.4 39.8 76 0.5 32.9
05:35 1020 30.12 849 25.07 4.2 39.6 74 -0.1 31.9
05:40 1020 30.12 849 25.07 4.3 39.8 72 -0.3 31.5
05:45 1020 30.12 849 25.07 4.6 40.4 72 0.1 32.1
05:50 1020 30.12 849 25.07 4.8 40.6 72 0.2 32.3
05:55 1020 30.12 849 25.07 4.6 40.3 74 0.3 32.6
06:00 1020 30.12 849 25.07 4 39.2 76 0.1 32.2
06:05 1020 30.12 849 25.07 3.6 38.4 76 -0.2 31.6
06:10 1020 30.12 849 25.07 3.5 38.4 77 -0.2 31.7
06:15 1020 30.12 849 25.07 3.6 38.5 76 -0.2 31.6
06:20 1020 30.12 849 25.07 3.6 38.5 77 -0.1 31.9
06:25 1020 30.12 849 25.07 3.4 38.1 77 -0.3 31.4
06:30 1020 30.12 849 25.07 3.2 37.7 77 -0.5 31.1
06:35 1020 30.12 849 25.07 3.3 37.9 76 -0.5 31.1
06:40 1020 30.12 849 25.07 3.2 37.8 78 -0.3 31.4
06:45 1020 30.12 849 25.07 3.2 37.7 77 -0.4 31.2
06:50 1020 30.12 849 25.07 3.1 37.6 78 -0.4 31.3
06:55 1020 30.12 849 25.07 3 37.4 78 -0.4 31.2
07:00 1020 30.12 849 25.07 3.1 37.5 77 -0.5 31
07:05 1020 30.12 849 25.07 2.5 36.4 80 -0.6 31
07:10 1020 30.12 849 25.07 2.1 35.8 81 -0.7 30.7
07:15 1020 30.12 849 25.07 2 35.7 81 -0.8 30.5
07:20 1019 30.09 849 25.07 2.2 35.9 79 -1 30.1
07:25 1019 30.09 849 25.07 2.5 36.5 78 -1 30.2
07:30 1020 30.12 849 25.07 2.8 37 76 -1 30.3
07:35 1020 30.12 849 25.07 3.1 37.6 76 -0.8 30.6
07:40 1020 30.12 849 25.07 3.4 38.1 74 -0.7 30.7
07:45 1020 30.12 849 25.07 3.5 38.3 73 -0.9 30.4
07:50 1020 30.12 849 25.07 3.4 38.1 73 -1 30.2
07:55 1020 30.12 849 25.07 3.6 38.4 74 -0.7 30.8
08:00 1020 30.12 849 25.07 3.3 38 75 -0.7 30.8
08:05 1020 30.12 849 25.07 3.2 37.8 76 -0.6 30.9
08:10 1020 30.12 849 25.07 3.4 38.2 74 -0.7 30.7
08:15 1020 30.12 849 25.07 3.5 38.3 75 -0.5 31.1
08:20 1020 30.12 849 25.07 3.5 38.3 74 -0.7 30.8
08:25 1020 30.12 849 25.07 3.6 38.5 74 -0.5 31
08:30 1020 30.12 849 25.07 3.8 38.8 73 -0.6 31
08:35 1020 30.12 849 25.07 4.1 39.4 72 -0.5 31.2
08:40 1020 30.12 849 25.07 4.5 40.2 71 -0.3 31.4
08:45 1020 30.12 849 25.07 4.8 40.6 70 -0.1 31.7
08:50 1020 30.12 849 25.07 4.9 40.9 70 0 32
08:55 1020 30.12 849 25.07 5 40.9 73 0.5 32.8
09:00 1020 30.12 849 25.07 4.8 40.6 72 0.2 32.3
09:05 1020 30.12 849 25.07 4.8 40.6 72 0.1 32.2
09:10 1020 30.12 849 25.07 5 40.9 71 0.2 32.4
09:15 1020 30.12 850 25.1 5.1 41.1 71 0.2 32.3
09:20 1020 30.12 850 25.1 5.2 41.3 71 0.3 32.5
09:25 1020 30.12 850 25.1 5.3 41.5 69 0.2 32.3
09:30 1021 30.15 850 25.1 5.4 41.7 68 0 32.1
09:35 1021 30.15 850 25.1 5.6 42 67 0 32
09:40 1021 30.15 850 25.1 5.8 42.5 67 0.1 32.2
09:45 1021 30.15 850 25.1 6.1 43 67 0.4 32.8
09:50 1021 30.15 850 25.1 6 42.7 69 0.6 33.2
09:55 1021 30.15 850 25.1 6 42.8 69 0.7 33.3
10:00 1021 30.15 850 25.1 6.4 43.5 70 1.3 34.3
10:05 1021 30.15 850 25.1 6.7 44.1 68 1.3 34.3
10:10 1021 30.15 850 25.1 7.2 44.9 65 1.1 34
10:15 1021 30.15 850 25.1 7.5 45.4 64 1.1 34
10:20 1021 30.15 850 25.1 7.6 45.8 63 1 33.8
10:25 1021 30.15 850 25.1 7.9 46.1 60 0.7 33.3
10:30 1021 30.15 850 25.1 7.9 46.3 60 0.6 33.2
10:35 1021 30.15 850 25.1 8.1 46.6 59 0.6 33.2
10:40 1021 30.15 850 25.1 8 46.4 59 0.6 33
10:45 1021 30.15 850 25.1 7.9 46.1 60 0.7 33.2
10:50 1021 30.15 850 25.1 7.9 46.3 62 1 33.9
10:55 1021 30.15 850 25.1 7.8 46.1 61 0.9 33.6
11:00 1021 30.15 850 25.1 7.9 46.2 61 0.9 33.6
11:05 1021 30.15 850 25.1 8.2 46.7 61 1 33.8
11:10 1021 30.15 850 25.1 8.5 47.2 58 0.6 33.2
11:15 1021 30.15 850 25.1 8.5 47.3 61 1.4 34.5
11:20 1021 30.15 850 25.1 8.3 46.9 59 0.7 33.2
11:25 1021 30.15 850 25.1 8.4 47.1 59 0.9 33.7
11:30 1021 30.15 850 25.1 8.4 47.2 60 1.1 33.9
11:35 1021 30.15 850 25.1 8.4 47.1 58 0.7 33.3
11:40 1021 30.15 850 25.1 8.6 47.5 58 0.9 33.6
11:45 1021 30.15 850 25.1 8.9 48 58 1.2 34.1
11:50 1021 30.15 850 25.1 8.8 47.9 58 1 33.7
11:55 1021 30.15 850 25.1 9 48.2 57 0.9 33.7
12:00 1021 30.15 850 25.1 9.5 49 55 0.8 33.4
12:05 1021 30.15 850 25.1 9.6 49.3 54 0.7 33.3
12:10 1021 30.15 850 25.1 9.6 49.3 49 -0.5 31
12:15 1021 30.15 850 25.1 10 50 45 -1.5 29.4
12:20 1021 30.15 850 25.1 10.4 50.7 43 -1.5 29.3
12:25 1021 30.15 850 25.1 10.3 50.6 42 -2.1 28.3
12:30 1021 30.15 850 25.1 10.5 50.9 40 -2.3 27.8
12:35 1021 30.15 850 25.1 11.1 52 38 -2.6 27.3
12:40 1020 30.12 850 25.1 12.1 53.8 37 -2.2 28
12:45 1020 30.12 850 25.1 12.1 53.8 37 -2.1 28.2
12:50 1020 30.12 850 25.1 11.7 53 38 -2.3 27.9
12:55 1020 30.12 850 25.1 12.3 54.1 35 -2.7 27.1
13:00 1020 30.12 850 25.1 12.6 54.6 35 -2.4 27.7
13:05 1020 30.12 850 25.1 13 55.3 34 -2.5 27.5
13:10 1020 30.12 849 25.07 13 55.4 35 -2.1 28.1
13:15 1020 30.12 849 25.07 13.1 55.6 34 -2.2 28
13:20 1020 30.12 849 25.07 13.1 55.6 34 -2.2 28.1
13:25 1020 30.12 849 25.07 13.5 56.3 34 -1.8 28.7
13:30 1020 30.12 849 25.07 13.8 56.8 33 -2.3 27.9
13:35 1020 30.12 849 25.07 14.1 57.4 31 -2.5 27.5
13:40 1020 30.12 849 25.07 14 57.2 33 -2.1 28.3
13:45 1020 30.12 849 25.07 13.6 56.5 33 -2.3 27.8
13:50 1020 30.12 849 25.07 14 57.1 32 -2.2 28
13:55 1020 30.12 849 25.07 14.2 57.5 33 -1.8 28.8
14:00 1019 30.09 849 25.07 14.2 57.5 33 -1.7 29
14:05 1020 30.12 849 25.07 14.2 57.6 32 -1.9 28.5
14:10 1020 30.12 849 25.07 14.4 58 33 -1.7 28.9
14:15 1020 30.12 849 25.07 14.3 57.7 33 -1.8 28.7
14:20 1020 30.12 849 25.07 14.3 57.7 34 -1.4 29.5
14:25 1020 30.12 849 25.07 13.6 56.5 34 -2.1 28.3
14:30 1020 30.12 849 25.07 14.1 57.4 34 -1.6 29.1
14:35 1020 30.12 849 25.07 13.5 56.3 39 -0.3 31.5
14:40 1020 30.12 849 25.07 12.5 54.5 39 -0.9 30.3
14:45 1019 30.09 849 25.07 12.5 54.5 39 -0.9 30.4
14:50 1019 30.09 849 25.07 12.9 55.2 36 -1.7 29
14:55 1019 30.09 849 25.07 13.8 56.8 34 -1.7 28.9
15:00 1019 30.09 848 25.04 13.7 56.7 35 -1.3 29.7
15:05 1019 30.09 848 25.04 14 57.3 35 -1.2 29.9
15:10 1019 30.09 848 25.04 14.6 58.2 31 -2.3 27.8
15:15 1019 30.09 848 25.04 14.3 57.8 31 -2.5 27.5
15:20 1019 30.09 848 25.04 14.5 58.1 32 -2 28.4
15:25 1019 30.09 848 25.04 14.4 58 32 -2.1 28.2
15:30 1019 30.09 848 25.04 14.6 58.2 31 -2.2 28
15:35 1019 30.09 848 25.04 14.6 58.2 32 -1.9 28.6
15:40 1019 30.09 848 25.04 15.2 59.3 30 -2.3 27.8
15:45 1019 30.09 848 25.04 15.2 59.4 30 -2.2 28.1
15:50 1019 30.09 848 25.04 15.7 60.3 29 -2.1 28.3
15:55 1019 30.09 848 25.04 16 60.8 30 -1.3 29.6
16:00 1019 30.09 848 25.04 15.6 60.1 31 -1.3 29.6
16:05 1019 30.09 848 25.04 15.3 59.5 31 -1.7 28.9
16:10 1019 30.09 848 25.04 14.9 58.7 30 -2.4 27.7
16:15 1019 30.09 848 25.04 15 59.1 31 -1.9 28.5
16:20 1019 30.09 848 25.04 15.1 59.1 30 -2.1 28.2
16:25 1019 30.09 848 25.04 14.8 58.6 31 -2.2 28
16:30 1019 30.09 848 25.04 14.2 57.6 32 -2.1 28.3
16:35 1019 30.09 848 25.04 14 57.1 32 -2.3 27.8
16:40 1019 30.09 848 25.04 13.9 57 32 -2.6 27.3
16:45 1019 30.09 848 25.04 14.1 57.4 31 -2.6 27.3
16:50 1019 30.09 848 25.04 14.2 57.5 32 -2.3 27.9
16:55 1019 30.09 848 25.04 14.5 58 32 -2 28.4
17:00 1019 30.09 848 25.04 14.7 58.5 30 -2.6 27.4
17:05 1019 30.09 848 25.04 14.9 58.8 30 -2.6 27.4
17:10 1019 30.09 848 25.04 14.9 58.8 30 -2.6 27.3
17:15 1019 30.09 848 25.04 14.9 58.8 30 -2.5 27.4
17:20 1019 30.09 848 25.04 15 58.9 30 -2.6 27.4
17:25 1019 30.09 848 25.04 15 59 30 -2.4 27.7
17:30 1019 30.09 848 25.04 14.9 58.8 30 -2.6 27.3
17:35 1019 30.09 848 25.04 14.8 58.7 30 -2.5 27.4
17:40 1019 30.09 848 25.04 14.9 58.8 30 -2.3 27.8
17:45 1019 30.09 848 25.04 14.8 58.7 31 -2.1 28.2
17:50 1019 30.09 848 25.04 14.8 58.7 30 -2.3 27.8
17:55 1019 30.09 848 25.04 14.7 58.4 31 -2.3 27.8
18:00 1019 30.09 848 25.04 14.6 58.2 30 -2.5 27.5
18:05 1019 30.09 848 25.04 14.6 58.2 31 -2.3 27.8
18:10 1019 30.09 848 25.04 14.5 58.1 31 -2.5 27.4
18:15 1019 30.09 848 25.04 14.5 58.1 31 -2.3 27.8
18:20 1019 30.09 848 25.04 14.4 57.8 32 -2 28.5
18:25 1019 30.09 848 25.04 14.1 57.4 33 -1.9 28.6
18:30 1019 30.09 848 25.04 14 57.2 33 -2 28.5
18:35 1019 30.09 848 25.04 13.8 56.8 34 -1.9 28.6
18:40 1019 30.09 848 25.04 13.4 56.2 34 -1.8 28.7
18:45 1019 30.09 848 25.04 13 55.4 35 -2 28.4
18:50 1019 30.09 848 25.04 12.7 54.9 37 -1.7 29
18:55 1019 30.09 848 25.04 12.4 54.4 38 -1.6 29.1
19:00 1019 30.09 848 25.04 12.2 53.9 38 -1.6 29.1
19:05 1019 30.09 848 25.04 11.7 53 41 -1.2 29.9
19:10 1019 30.09 848 25.04 10.9 51.7 42 -1.3 29.6
19:15 1019 30.09 848 25.04 10.3 50.5 44 -1.5 29.3
19:20 1019 30.09 848 25.04 10.2 50.3 45 -1.3 29.7
19:25 1019 30.09 848 25.04 10 50 48 -0.5 31.1
19:30 1019 30.09 848 25.04 9.3 48.7 50 -0.7 30.7
19:35 1019 30.09 848 25.04 9 48.3 50 -0.9 30.3
19:40 1019 30.09 848 25.04 8.9 48 51 -0.8 30.6
19:45 1019 30.09 848 25.04 8.8 47.8 50 -0.9 30.4
19:50 1019 30.09 848 25.04 8.7 47.6 51 -0.8 30.5
19:55 1019 30.09 848 25.04 8.6 47.4 53 -0.5 31.1
20:00 1019 30.09 849 25.07 8.2 46.8 53 -0.7 30.8
20:05 1019 30.09 849 25.07 7.9 46.3 56 -0.3 31.5
20:10 1019 30.09 849 25.07 7.7 45.8 55 -0.7 30.8
20:15 1020 30.12 849 25.07 7.9 46.2 54 -0.8 30.5
20:20 1020 30.12 849 25.07 8.3 46.9 53 -0.8 30.5
20:25 1020 30.12 849 25.07 8.3 47 54 -0.5 31.2
20:30 1020 30.12 849 25.07 7.8 46.1 55 -0.6 30.9
20:35 1020 30.12 849 25.07 7.9 46.1 52 -1.3 29.7
20:40 1020 30.12 849 25.07 8.3 46.9 54 -0.4 31.2
20:45 1020 30.12 849 25.07 8.2 46.8 54 -0.4 31.2
20:50 1020 30.12 849 25.07 8.2 46.8 55 -0.3 31.5
20:55 1020 30.12 849 25.07 8.2 46.8 56 -0 31.9
21:00 1020 30.12 849 25.07 8.2 46.8 56 0.1 32.1
21:05 1020 30.12 849 25.07 8.2 46.8 57 0.2 32.4
21:10 1020 30.12 849 25.07 8.1 46.6 57 0.2 32.3
21:15 1020 30.12 849 25.07 8.1 46.5 57 0.2 32.3
21:20 1020 30.12 849 25.07 8 46.3 58 0.3 32.5
21:25 1020 30.12 850 25.1 7.9 46.2 58 0.1 32.2
21:30 1020 30.12 850 25.1 8 46.3 58 0.2 32.4
21:35 1020 30.12 850 25.1 7.9 46.3 58 0.2 32.3
21:40 1020 30.12 850 25.1 8 46.4 58 0.3 32.5
21:45 1020 30.12 850 25.1 7.9 46.3 58 0.1 32.2
21:50 1021 30.15 850 25.1 7.9 46.2 58 0.2 32.4
21:55 1020 30.12 850 25.1 7.9 46.3 59 0.4 32.7
22:00 1020 30.12 850 25.1 7.7 45.9 60 0.4 32.7
22:05 1021 30.15 850 25.1 7.7 45.8 60 0.4 32.8
22:10 1021 30.15 850 25.1 7.5 45.6 59 0.2 32.3
22:15 1021 30.15 850 25.1 7.6 45.7 59 0.2 32.4
22:20 1021 30.15 850 25.1 7.6 45.7 60 0.3 32.6
22:25 1021 30.15 850 25.1 7.7 45.8 59 0.3 32.5
22:30 1021 30.15 850 25.1 7.7 45.8 59 0.3 32.5
22:35 1021 30.15 850 25.1 7.7 45.8 60 0.5 33
22:40 1021 30.15 850 25.1 7.7 45.8 58 0.1 32.1
22:45 1021 30.15 850 25.1 7.4 45.4 60 0.1 32.2
22:50 1021 30.15 850 25.1 7 44.6 61 0.1 32.2
22:55 1020 30.12 850 25.1 6.8 44.2 63 0.3 32.5
23:00 1020 30.12 850 25.1 6.4 43.5 65 0.4 32.7
23:05 1020 30.12 850 25.1 6.2 43.1 67 0.5 32.9
23:10 1020 30.12 849 25.07 6.1 43 67 0.4 32.8
23:15 1020 30.12 849 25.07 6.1 42.9 66 0.2 32.4
23:20 1020 30.12 849 25.07 6.3 43.4 65 0.3 32.5
23:25 1020 30.12 849 25.07 6.4 43.5 64 0 32
23:30 1020 30.12 849 25.07 6.6 44 63 0.2 32.4
23:35 1020 30.12 849 25.07 6.5 43.8 63 0 32
23:40 1020 30.12 849 25.07 6.6 43.9 62 -0.2 31.7
23:45 1020 30.12 849 25.07 6.6 43.9 61 -0.3 31.4
23:50 1020 30.12 849 25.07 6.6 43.9 60 -0.5 31.1
23:55 1020 30.12 849 25.07 6.7 44 60 -0.5 31.1
24:00 1020 30.12 849 25.07 6.7 44 60 -0.5 31.2